createdAt,value
2023-04-18T00:01:21.470Z,9.07
2023-04-18T00:03:52.121Z,8.99
2023-04-18T00:06:22.725Z,9.00
2023-04-18T00:08:50.076Z,8.98
2023-04-18T00:11:17.254Z,9.12
2023-04-18T00:13:44.432Z,9.09
2023-04-18T00:16:17.641Z,8.97
2023-04-18T00:18:44.948Z,8.90
2023-04-18T00:21:12.073Z,9.01
2023-04-18T00:23:39.208Z,9.10
2023-04-18T00:26:06.414Z,9.02
2023-04-18T00:28:33.672Z,8.98
2023-04-18T00:31:00.941Z,8.96
2023-04-18T00:33:28.172Z,9.01
2023-04-18T00:35:55.925Z,8.91
2023-04-18T00:38:23.165Z,8.84
2023-04-18T00:40:51.469Z,8.90
2023-04-18T00:43:18.627Z,8.93
2023-04-18T00:45:46.227Z,8.92
2023-04-18T00:48:13.538Z,8.98
2023-04-18T00:50:40.946Z,8.93
2023-04-18T00:53:10.263Z,8.87
2023-04-18T00:55:38.811Z,8.87
2023-04-18T00:58:06.126Z,8.87
2023-04-18T01:00:33.384Z,8.82
2023-04-18T01:03:00.706Z,8.90
2023-04-18T01:05:28.468Z,8.85
2023-04-18T01:07:56.023Z,8.85
2023-04-18T01:10:23.155Z,8.85
2023-04-18T01:12:50.239Z,8.94
2023-04-18T01:15:17.394Z,8.83
2023-04-18T01:17:44.648Z,8.82
2023-04-18T01:20:12.681Z,8.80
2023-04-18T01:22:39.866Z,8.84
2023-04-18T01:25:08.650Z,8.87
2023-04-18T01:27:35.880Z,8.86
2023-04-18T01:30:03.235Z,8.80
2023-04-18T01:32:30.398Z,8.91
2023-04-18T01:34:57.697Z,8.78
2023-04-18T01:37:24.828Z,8.81
2023-04-18T01:39:52.103Z,8.72
2023-04-18T01:42:19.230Z,8.78
2023-04-18T01:44:46.887Z,8.85
2023-04-18T01:47:14.156Z,8.75
2023-04-18T01:49:41.417Z,8.67
2023-04-18T01:52:08.608Z,8.87
2023-04-18T01:54:35.984Z,8.75
2023-04-18T01:57:03.241Z,8.73
2023-04-18T01:59:30.414Z,8.64
2023-04-18T02:01:58.719Z,8.76
2023-04-18T02:04:25.991Z,8.77
2023-04-18T02:06:53.651Z,8.67
2023-04-18T02:09:21.722Z,8.71
2023-04-18T02:11:48.851Z,8.74
2023-04-18T02:14:16.173Z,8.73
2023-04-18T02:16:43.380Z,8.70
2023-04-18T02:19:11.104Z,8.72
2023-04-18T02:21:38.352Z,8.71
2023-04-18T02:24:05.613Z,8.74
2023-04-18T02:26:32.732Z,8.74
2023-04-18T02:28:59.945Z,8.76
2023-04-18T02:31:27.136Z,8.97
2023-04-18T02:33:54.232Z,8.81
2023-04-18T02:36:21.404Z,8.83
2023-04-18T02:38:48.497Z,8.75
2023-04-18T02:41:15.729Z,8.86
2023-04-18T02:43:42.946Z,8.79
2023-04-18T02:46:10.224Z,8.84
2023-04-18T02:48:37.425Z,8.73
2023-04-18T02:51:06.184Z,8.79
2023-04-18T02:53:34.789Z,8.92
2023-04-18T02:56:02.220Z,8.92
2023-04-18T02:58:29.548Z,8.83
2023-04-18T03:00:58.191Z,8.92
2023-04-18T03:03:26.056Z,8.85
2023-04-18T03:05:53.309Z,8.84
2023-04-18T03:08:21.031Z,8.85
2023-04-18T03:10:48.133Z,8.85
2023-04-18T03:13:16.945Z,8.94
2023-04-18T03:15:44.182Z,8.96
2023-04-18T03:18:11.415Z,8.83
2023-04-18T03:20:38.611Z,8.99
2023-04-18T03:23:05.738Z,9.03
2023-04-18T03:25:33.000Z,9.03
2023-04-18T03:28:00.148Z,9.20
2023-04-18T03:30:27.405Z,9.01
2023-04-18T03:32:55.365Z,9.04
2023-04-18T03:35:35.700Z,9.05
2023-04-18T03:38:02.868Z,8.88
2023-04-18T03:40:30.493Z,12.20
2023-04-18T03:42:59.169Z,11.72
2023-04-18T03:45:26.945Z,12.90
2023-04-18T03:47:54.653Z,12.08
2023-04-18T03:50:22.364Z,12.78
2023-04-18T03:52:50.337Z,12.40
2023-04-18T03:55:19.688Z,12.47
2023-04-18T03:57:48.100Z,13.01
2023-04-18T04:00:16.622Z,12.18
2023-04-18T04:02:44.916Z,12.20
2023-04-18T04:05:12.291Z,11.68
2023-04-18T04:07:39.494Z,12.17
2023-04-18T04:10:07.396Z,12.04
2023-04-18T04:12:35.046Z,12.19
2023-04-18T04:15:02.353Z,12.11
2023-04-18T04:17:29.777Z,11.08
2023-04-18T04:19:56.893Z,10.09
2023-04-18T04:22:24.014Z,9.96
2023-04-18T04:24:51.899Z,9.96
2023-04-18T04:27:19.155Z,9.69
2023-04-18T04:29:46.281Z,9.72
2023-04-18T04:32:14.221Z,9.64
2023-04-18T04:34:41.417Z,9.56
2023-04-18T04:37:08.619Z,9.53
2023-04-18T04:39:35.772Z,9.57
2023-04-18T04:42:02.998Z,9.60
2023-04-18T04:44:30.296Z,9.52
2023-04-18T04:46:58.312Z,9.36
2023-04-18T04:49:25.444Z,9.48
2023-04-18T04:51:52.926Z,9.47
2023-04-18T04:54:21.561Z,9.54
2023-04-18T04:56:48.798Z,9.40
2023-04-18T04:59:15.933Z,9.50
2023-04-18T05:01:43.053Z,9.36
2023-04-18T05:04:10.500Z,9.40
2023-04-18T05:06:39.594Z,9.45
2023-04-18T05:09:07.432Z,9.55
2023-04-18T05:11:34.789Z,9.37
2023-04-18T05:14:01.953Z,9.11
2023-04-18T05:16:29.453Z,9.36
2023-04-18T05:18:56.893Z,9.47
2023-04-18T05:21:24.129Z,9.40
2023-04-18T05:23:51.583Z,9.35
2023-04-18T05:26:19.039Z,9.25
2023-04-18T05:28:46.239Z,9.21
2023-04-18T05:31:13.644Z,9.35
2023-04-18T05:33:40.841Z,9.18
2023-04-18T05:36:08.157Z,9.25
2023-04-18T05:38:35.575Z,9.27
2023-04-18T05:41:02.808Z,9.20
2023-04-18T05:43:30.392Z,9.27
2023-04-18T05:45:57.999Z,9.24
2023-04-18T05:48:25.326Z,9.18
2023-04-18T05:50:52.505Z,9.26
2023-04-18T05:53:19.653Z,9.22
2023-04-18T05:55:47.216Z,9.27
2023-04-18T05:58:15.125Z,9.32
2023-04-18T06:00:42.943Z,9.37
2023-04-18T06:03:11.363Z,9.34
2023-04-18T06:05:38.898Z,9.32
2023-04-18T06:08:06.396Z,9.27
2023-04-18T06:10:33.627Z,9.26
2023-04-18T06:13:00.915Z,9.32
2023-04-18T06:15:28.395Z,9.31
2023-04-18T06:17:58.979Z,9.25
2023-04-18T06:20:26.208Z,9.26
2023-04-18T06:22:53.402Z,9.39
2023-04-18T06:25:20.832Z,9.37
2023-04-18T06:27:52.068Z,9.45
2023-04-18T06:30:19.229Z,9.39
2023-04-18T06:32:46.433Z,9.45
2023-04-18T06:35:13.674Z,9.41
2023-04-18T06:37:40.787Z,9.42
2023-04-18T06:40:08.936Z,9.48
2023-04-18T06:42:36.121Z,9.54
2023-04-18T06:45:03.708Z,9.54
2023-04-18T06:47:31.013Z,9.58
2023-04-18T06:49:58.198Z,9.64
2023-04-18T06:52:25.398Z,9.46
2023-04-18T06:54:52.609Z,9.68
2023-04-18T06:57:20.066Z,9.72
2023-04-18T06:59:47.370Z,9.71
2023-04-18T07:02:14.620Z,9.75
2023-04-18T07:04:41.969Z,9.69
2023-04-18T07:07:09.217Z,9.68
2023-04-18T07:09:36.506Z,9.77
2023-04-18T07:12:03.671Z,9.80
2023-04-18T07:14:32.819Z,9.62
2023-04-18T07:17:01.560Z,9.80
2023-04-18T07:19:29.143Z,9.84
2023-04-18T07:21:56.756Z,9.77
2023-04-18T07:24:23.832Z,9.82
2023-04-18T07:26:53.710Z,9.67
2023-04-18T07:29:21.980Z,9.78
2023-04-18T07:34:23.353Z,9.93
2023-04-18T07:36:50.666Z,9.91
2023-04-18T07:39:18.125Z,9.87
2023-04-18T07:41:45.212Z,9.97
2023-04-18T07:44:12.614Z,9.88
2023-04-18T07:46:40.351Z,10.02
2023-04-18T07:49:07.536Z,9.94
2023-04-18T07:51:34.676Z,10.05
2023-04-18T07:54:01.950Z,10.08
2023-04-18T07:56:29.114Z,9.92
2023-04-18T07:58:56.360Z,9.87
2023-04-18T08:01:23.466Z,10.03
2023-04-18T08:03:51.147Z,9.99
2023-04-18T08:06:18.386Z,9.86
2023-04-18T08:08:45.750Z,9.91
2023-04-18T08:11:13.414Z,10.04
2023-04-18T08:13:40.782Z,10.01
2023-04-18T08:16:08.464Z,9.91
2023-04-18T08:18:36.321Z,9.94
2023-04-18T08:21:03.663Z,9.94
2023-04-18T08:23:30.849Z,10.07
2023-04-18T08:25:57.920Z,9.84
2023-04-18T08:28:25.061Z,9.84
2023-04-18T08:30:52.778Z,9.99
2023-04-18T08:33:21.828Z,9.97
2023-04-18T08:35:49.492Z,10.03
2023-04-18T08:38:17.792Z,9.99
2023-04-18T08:40:45.485Z,10.09
2023-04-18T08:43:14.425Z,10.06
2023-04-18T08:45:42.647Z,10.04
2023-04-18T08:48:14.103Z,10.13
2023-04-18T08:50:41.533Z,10.11
2023-04-18T08:53:09.223Z,10.24
2023-04-18T08:55:36.660Z,10.10
2023-04-18T08:58:04.398Z,10.02
2023-04-18T09:00:31.513Z,10.18
2023-04-18T09:02:59.310Z,10.09
2023-04-18T09:05:27.000Z,10.18
2023-04-18T09:07:55.294Z,10.02
2023-04-18T09:10:31.167Z,10.24
2023-04-18T09:13:01.997Z,10.25
2023-04-18T09:15:29.897Z,10.13
2023-04-18T09:18:00.170Z,10.03
2023-04-18T09:20:35.363Z,10.04
2023-04-18T09:23:11.226Z,10.00
2023-04-18T09:25:43.301Z,10.01
2023-04-18T09:28:41.096Z,10.09
2023-04-18T09:31:10.879Z,10.32
2023-04-18T09:33:39.843Z,10.29
2023-04-18T09:36:27.256Z,10.08
2023-04-18T09:38:57.012Z,9.95
2023-04-18T09:41:24.686Z,10.09
2023-04-18T09:44:12.360Z,10.16
2023-04-18T09:46:41.438Z,10.11
2023-04-18T09:49:10.426Z,10.01
2023-04-18T09:51:41.271Z,10.11
2023-04-18T09:54:11.040Z,10.11
2023-04-18T09:56:45.716Z,10.08
2023-04-18T09:59:16.343Z,10.20
2023-04-18T10:01:44.522Z,10.19
2023-04-18T10:04:12.503Z,10.18
2023-04-18T10:06:43.297Z,10.05
2023-04-18T10:09:10.771Z,10.12
2023-04-18T10:11:38.399Z,10.22
2023-04-18T10:14:09.321Z,10.13
2023-04-18T10:16:37.920Z,10.14
2023-04-18T10:19:25.913Z,10.16
2023-04-18T10:21:58.874Z,10.16
2023-04-18T10:24:50.710Z,10.18
2023-04-18T10:27:18.610Z,10.13
2023-04-18T10:29:53.550Z,10.11
2023-04-18T10:32:23.592Z,10.22
2023-04-18T10:34:54.019Z,10.20
2023-04-18T10:37:21.096Z,10.28
2023-04-18T10:39:57.467Z,10.21
2023-04-18T10:42:43.108Z,10.16
2023-04-18T10:45:20.124Z,10.25
2023-04-18T10:47:47.710Z,10.25
2023-04-18T10:50:15.792Z,10.29
2023-04-18T10:52:45.355Z,10.37
2023-04-18T10:55:17.028Z,10.23
2023-04-18T10:57:45.217Z,10.33
2023-04-18T11:00:15.964Z,10.35
2023-04-18T11:02:51.954Z,10.37
2023-04-18T11:05:29.223Z,10.41
2023-04-18T11:07:56.555Z,10.36
2023-04-18T11:10:25.844Z,10.47
2023-04-18T11:12:54.819Z,10.57
2023-04-18T11:15:24.089Z,10.50
2023-04-18T11:18:02.334Z,10.48
2023-04-18T11:20:37.680Z,10.58
2023-04-18T11:23:18.713Z,10.62
2023-04-18T11:25:45.964Z,10.58
2023-04-18T11:28:13.133Z,10.60
2023-04-18T11:30:41.438Z,10.56
2023-04-18T11:33:09.706Z,10.71
2023-04-18T11:35:38.844Z,10.74
2023-04-18T11:38:06.588Z,10.80
2023-04-18T11:40:34.499Z,10.74
2023-04-18T11:43:06.065Z,10.77
2023-04-18T11:45:33.160Z,10.81
2023-04-18T11:48:00.769Z,10.80
2023-04-18T11:50:27.966Z,10.92
2023-04-18T11:52:56.572Z,10.80
2023-04-18T11:55:25.106Z,11.49
2023-04-18T11:57:56.897Z,11.74
2023-04-18T12:00:38.287Z,11.32
2023-04-18T12:03:07.686Z,11.25
2023-04-18T12:05:38.129Z,11.18
2023-04-18T12:08:10.281Z,11.21
2023-04-18T12:10:38.191Z,11.38
2023-04-18T12:13:08.857Z,11.40
2023-04-18T12:15:40.496Z,11.47
2023-04-18T12:18:08.186Z,11.50
2023-04-18T12:20:44.930Z,11.43
2023-04-18T12:23:30.443Z,11.43
2023-04-18T12:26:05.909Z,11.45
2023-04-18T12:28:34.513Z,11.41
2023-04-18T12:31:02.431Z,11.37
2023-04-18T12:33:30.397Z,11.50
2023-04-18T12:35:57.666Z,11.45
2023-04-18T12:38:24.925Z,11.53
2023-04-18T12:40:52.570Z,11.50
2023-04-18T12:43:19.913Z,11.50
2023-04-18T12:45:47.577Z,11.64
2023-04-18T12:48:14.859Z,11.48
2023-04-18T12:50:42.146Z,11.51
2023-04-18T12:53:09.549Z,11.50
2023-04-18T12:55:36.901Z,11.50
2023-04-18T12:58:04.321Z,11.55
2023-04-18T13:00:32.346Z,11.58
2023-04-18T13:03:00.091Z,11.63
2023-04-18T13:05:32.071Z,11.63
2023-04-18T13:10:32.273Z,11.73
2023-04-18T13:12:59.613Z,11.69
2023-04-18T13:15:26.876Z,11.64
2023-04-18T13:17:55.248Z,11.66
2023-04-18T13:20:22.688Z,13.32
2023-04-18T13:22:49.936Z,13.78
2023-04-18T13:25:17.192Z,14.04
2023-04-18T13:27:44.414Z,14.38
2023-04-18T13:30:11.928Z,14.37
2023-04-18T13:32:39.421Z,14.18
2023-04-18T13:35:07.485Z,14.59
2023-04-18T13:37:36.653Z,15.21
2023-04-18T13:40:05.154Z,14.89
2023-04-18T13:42:52.461Z,14.91
2023-04-18T13:45:19.784Z,14.50
2023-04-18T13:47:47.180Z,14.81
2023-04-18T13:50:14.454Z,14.75
2023-04-18T13:52:41.874Z,14.95
2023-04-18T13:55:09.568Z,15.51
2023-04-18T13:57:36.963Z,14.23
2023-04-18T14:00:05.316Z,14.68
2023-04-18T14:02:32.661Z,14.91
2023-04-18T14:05:00.409Z,14.88
2023-04-18T14:07:28.238Z,13.53
2023-04-18T14:09:55.689Z,12.92
2023-04-18T14:12:23.072Z,12.49
2023-04-18T14:14:50.747Z,12.33
2023-04-18T14:17:18.209Z,12.19
2023-04-18T14:19:45.594Z,12.14
2023-04-18T14:22:12.915Z,13.94
2023-04-18T14:24:40.241Z,14.13
2023-04-18T14:27:07.868Z,14.27
2023-04-18T14:29:35.262Z,14.30
2023-04-18T14:32:02.585Z,14.03
2023-04-18T14:34:31.209Z,13.84
2023-04-18T14:37:00.635Z,13.05
2023-04-18T14:39:27.993Z,12.54
2023-04-18T14:41:55.659Z,12.11
2023-04-18T14:44:23.082Z,11.72
2023-04-18T14:46:50.239Z,11.73
2023-04-18T14:49:17.552Z,11.67
2023-04-18T14:51:44.660Z,11.40
2023-04-18T14:54:11.930Z,11.30
2023-04-18T14:56:39.031Z,11.31
2023-04-18T14:59:06.166Z,11.20
2023-04-18T15:01:33.337Z,11.20
2023-04-18T15:04:00.754Z,12.64
2023-04-18T15:06:30.676Z,11.89
2023-04-18T15:08:57.860Z,11.54
2023-04-18T15:11:25.011Z,11.46
2023-04-18T15:13:52.158Z,11.33
2023-04-18T15:16:19.328Z,11.36
2023-04-18T15:18:46.555Z,11.26
2023-04-18T15:21:13.641Z,11.17
2023-04-18T15:23:40.789Z,11.21
2023-04-18T15:26:08.453Z,11.22
2023-04-18T15:28:35.606Z,11.22
2023-04-18T15:31:02.765Z,11.26
2023-04-18T15:33:29.963Z,11.28
2023-04-18T15:35:57.110Z,11.24
2023-04-18T15:38:24.239Z,11.20
2023-04-18T15:40:51.445Z,11.21
2023-04-18T15:43:18.575Z,12.31
2023-04-18T15:45:46.031Z,11.77
2023-04-18T15:48:13.266Z,11.55
2023-04-18T15:50:40.928Z,11.34
2023-04-18T15:53:08.176Z,11.32
2023-04-18T15:55:38.953Z,11.26
2023-04-18T15:58:06.067Z,11.25
2023-04-18T16:00:33.186Z,11.23
2023-04-18T16:03:00.542Z,11.24
2023-04-18T16:05:27.832Z,11.14
2023-04-18T16:07:55.008Z,11.06
2023-04-18T16:10:22.591Z,11.10
2023-04-18T16:12:49.700Z,11.13
2023-04-18T16:15:16.886Z,11.10
2023-04-18T16:17:44.050Z,11.01
2023-04-18T16:20:11.416Z,11.02
2023-04-18T16:22:38.591Z,11.08
2023-04-18T16:25:06.538Z,11.12
2023-04-18T16:27:33.664Z,10.95
2023-04-18T16:30:00.915Z,11.01
2023-04-18T16:32:28.188Z,10.96
2023-04-18T16:34:55.706Z,11.06
2023-04-18T16:37:23.099Z,10.99
2023-04-18T16:39:50.600Z,11.07
2023-04-18T16:42:20.633Z,11.09
2023-04-18T16:44:47.911Z,11.09
2023-04-18T16:47:15.028Z,11.12
2023-04-18T16:49:42.464Z,11.04
2023-04-18T16:52:09.647Z,11.00
2023-04-18T16:54:37.202Z,10.97
2023-04-18T16:57:04.475Z,11.00
2023-04-18T16:59:31.920Z,10.98
2023-04-18T17:01:59.444Z,10.99
2023-04-18T17:04:26.862Z,10.95
2023-04-18T17:06:54.748Z,10.94
2023-04-18T17:09:22.353Z,10.95
2023-04-18T17:11:49.724Z,10.92
2023-04-18T17:14:17.283Z,11.01
2023-04-18T17:16:44.593Z,10.93
2023-04-18T17:19:11.959Z,10.91
2023-04-18T17:21:39.333Z,10.85
2023-04-18T17:24:06.814Z,10.91
2023-04-18T17:26:35.401Z,10.96
2023-04-18T17:29:03.164Z,11.02
2023-04-18T17:31:31.027Z,12.22
2023-04-18T17:33:59.256Z,13.93
2023-04-18T17:36:26.402Z,12.85
2023-04-18T17:38:53.604Z,12.15
2023-04-18T17:41:21.489Z,11.74
2023-04-18T17:43:48.995Z,11.56
2023-04-18T17:46:16.732Z,11.36
2023-04-18T17:48:44.178Z,11.33
2023-04-18T17:51:11.563Z,11.24
2023-04-18T17:53:38.718Z,11.20
2023-04-18T17:56:06.198Z,11.12
2023-04-18T17:58:33.549Z,11.12
2023-04-18T18:01:00.714Z,11.10
2023-04-18T18:03:46.766Z,11.03
2023-04-18T18:06:16.056Z,10.96
2023-04-18T18:08:43.629Z,11.02
2023-04-18T18:11:11.452Z,11.04
2023-04-18T18:13:38.861Z,10.95
2023-04-18T18:16:06.789Z,11.03
2023-04-18T18:18:34.354Z,10.96
2023-04-18T18:21:01.593Z,11.02
2023-04-18T18:23:29.179Z,10.98
2023-04-18T18:25:56.782Z,10.89
2023-04-18T18:28:23.970Z,10.87
2023-04-18T18:30:54.341Z,10.93
2023-04-18T18:33:21.627Z,10.92
2023-04-18T18:35:48.892Z,10.93
2023-04-18T18:38:16.276Z,10.88
2023-04-18T18:40:52.233Z,10.88
2023-04-18T18:43:19.352Z,10.82
2023-04-18T18:45:46.720Z,10.85
2023-04-18T18:48:14.380Z,10.91
2023-04-18T18:50:41.562Z,10.84
2023-04-18T18:53:08.706Z,10.95
2023-04-18T18:55:35.883Z,10.94
2023-04-18T18:58:02.944Z,10.85
2023-04-18T19:00:30.080Z,10.77
2023-04-18T19:02:57.632Z,10.80
2023-04-18T19:05:25.222Z,10.81
2023-04-18T19:07:52.447Z,10.83
2023-04-18T19:10:19.694Z,10.78
2023-04-18T19:12:47.433Z,10.81
2023-04-18T19:15:14.623Z,10.78
2023-04-18T19:17:41.855Z,10.74
2023-04-18T19:20:09.319Z,10.73
2023-04-18T19:22:37.900Z,10.83
2023-04-18T19:25:05.385Z,10.88
2023-04-18T19:27:32.625Z,10.84
2023-04-18T19:29:59.852Z,10.82
2023-04-18T19:32:27.268Z,10.80
2023-04-18T19:34:54.543Z,10.80
2023-04-18T19:37:21.794Z,10.83
2023-04-18T19:39:48.963Z,10.93
2023-04-18T19:42:16.252Z,10.91
2023-04-18T19:44:43.459Z,10.92
2023-04-18T19:47:10.640Z,10.84
2023-04-18T19:49:37.904Z,10.83
2023-04-18T19:52:05.322Z,10.83
2023-04-18T19:54:33.525Z,10.73
2023-04-18T19:57:00.663Z,10.71
2023-04-18T19:59:28.231Z,10.78
2023-04-18T20:01:55.776Z,10.83
2023-04-18T20:04:24.013Z,10.75
2023-04-18T20:06:51.270Z,10.74
2023-04-18T20:09:18.451Z,10.75
2023-04-18T20:11:49.023Z,10.74
2023-04-18T20:14:16.203Z,10.67
2023-04-18T20:16:43.385Z,10.77
2023-04-18T20:19:12.703Z,10.74
2023-04-18T20:21:40.045Z,10.73
2023-04-18T20:24:07.713Z,10.75
2023-04-18T20:26:34.883Z,10.78
2023-04-18T20:29:02.052Z,10.75
2023-04-18T20:31:29.432Z,10.79
2023-04-18T20:33:56.527Z,10.76
2023-04-18T20:36:23.675Z,10.84
2023-04-18T20:38:50.834Z,10.86
2023-04-18T20:41:17.936Z,10.86
2023-04-18T20:43:45.300Z,10.81
2023-04-18T20:46:12.468Z,10.86
2023-04-18T20:48:40.113Z,10.83
2023-04-18T20:51:07.289Z,10.84
2023-04-18T20:53:34.442Z,10.77
2023-04-18T20:56:02.289Z,10.73
2023-04-18T20:58:29.901Z,10.73
2023-04-18T21:00:57.200Z,10.77
2023-04-18T21:03:43.080Z,10.78
2023-04-18T21:06:23.564Z,10.75
2023-04-18T21:09:10.116Z,10.74
2023-04-18T21:11:37.294Z,10.75
2023-04-18T21:14:04.566Z,10.73
2023-04-18T21:16:31.835Z,10.72
2023-04-18T21:18:59.161Z,10.60
2023-04-18T21:21:26.342Z,10.53
2023-04-18T21:23:53.459Z,10.50
2023-04-18T21:26:20.672Z,10.60
2023-04-18T21:29:03.832Z,10.63
2023-04-18T21:31:32.470Z,10.66
2023-04-18T21:34:02.144Z,10.58
2023-04-18T21:36:30.213Z,10.59
2023-04-18T21:38:59.928Z,10.65
2023-04-18T21:41:27.612Z,10.63
2023-04-18T21:43:55.089Z,10.69
2023-04-18T21:46:22.375Z,10.64
2023-04-18T21:48:49.926Z,10.58
2023-04-18T21:51:17.223Z,10.56
2023-04-18T21:53:44.553Z,10.61
2023-04-18T21:56:11.993Z,10.58
2023-04-18T21:58:39.239Z,10.51
2023-04-18T22:01:06.572Z,10.67
2023-04-18T22:03:34.376Z,10.62
2023-04-18T22:06:03.740Z,10.67
2023-04-18T22:08:30.994Z,10.69
2023-04-18T22:10:58.847Z,10.70
2023-04-18T22:13:27.840Z,10.64
2023-04-18T22:15:56.173Z,10.59
2023-04-18T22:18:23.421Z,10.51
2023-04-18T22:20:50.562Z,10.43
2023-04-18T22:23:17.761Z,10.37
2023-04-18T22:25:45.028Z,10.48
2023-04-18T22:28:12.379Z,10.45
2023-04-18T22:30:39.767Z,10.47
2023-04-18T22:33:06.986Z,10.44
2023-04-18T22:35:34.332Z,10.46
2023-04-18T22:38:01.536Z,10.57
2023-04-18T22:40:28.917Z,10.53
2023-04-18T22:42:56.130Z,10.50
2023-04-18T22:45:23.360Z,10.51
2023-04-18T22:47:50.614Z,10.59
2023-04-18T22:50:20.848Z,10.51
2023-04-18T22:52:48.029Z,10.47
2023-04-18T22:55:15.232Z,10.53
2023-04-18T22:57:42.380Z,10.55
2023-04-18T23:00:10.082Z,10.51
2023-04-18T23:02:37.530Z,10.58
2023-04-18T23:05:05.854Z,10.62
2023-04-18T23:07:33.062Z,10.60
2023-04-18T23:10:00.544Z,10.60
2023-04-18T23:12:27.729Z,10.52
2023-04-18T23:14:54.960Z,10.49
2023-04-18T23:17:22.173Z,10.43
2023-04-18T23:19:49.439Z,10.52
2023-04-18T23:22:16.650Z,10.48
2023-04-18T23:24:44.846Z,10.47
2023-04-18T23:27:12.078Z,10.39
2023-04-18T23:29:39.272Z,10.52
2023-04-18T23:32:06.445Z,10.43
2023-04-18T23:34:33.850Z,10.42
2023-04-18T23:37:01.078Z,10.44
2023-04-18T23:39:28.290Z,10.32
2023-04-18T23:41:55.496Z,10.36
2023-04-18T23:44:23.014Z,10.34
2023-04-18T23:46:50.234Z,10.36
2023-04-18T23:49:17.452Z,10.41
2023-04-18T23:51:44.640Z,10.52
2023-04-18T23:54:11.917Z,10.49
2023-04-18T23:56:39.193Z,10.45
2023-04-18T23:59:06.634Z,10.37
